createdAt,value
2022-12-19T00:00:17.210Z,-2.20
2022-12-19T00:02:43.951Z,-2.20
2022-12-19T00:05:14.497Z,-2.20
2022-12-19T00:07:43.461Z,-2.20
2022-12-19T00:10:10.363Z,-2.20
2022-12-19T00:12:39.618Z,-2.20
2022-12-19T00:15:07.134Z,-2.20
2022-12-19T00:17:33.876Z,-2.30
2022-12-19T00:20:03.746Z,-2.30
2022-12-19T00:22:30.519Z,-2.20
2022-12-19T00:24:57.220Z,-2.20
2022-12-19T00:27:28.538Z,-2.20
2022-12-19T00:29:57.355Z,-2.20
2022-12-19T00:32:24.049Z,-2.20
2022-12-19T00:34:56.544Z,-2.20
2022-12-19T00:37:25.142Z,-2.20
2022-12-19T00:39:51.849Z,-2.20
2022-12-19T00:42:18.559Z,-2.10
2022-12-19T00:44:45.266Z,-2.10
2022-12-19T00:47:11.999Z,-2.10
2022-12-19T00:49:38.764Z,-2.00
2022-12-19T00:52:10.412Z,-2.00
2022-12-19T00:54:37.134Z,-2.00
2022-12-19T00:57:06.573Z,-1.90
2022-12-19T00:59:35.677Z,-2.00
2022-12-19T01:02:05.005Z,-2.10
2022-12-19T01:04:41.306Z,-2.00
2022-12-19T01:07:08.609Z,-1.90
2022-12-19T01:09:36.837Z,-1.90
2022-12-19T01:12:24.883Z,-1.90
2022-12-19T01:15:01.108Z,-1.90
2022-12-19T01:17:34.649Z,-1.90
2022-12-19T01:20:14.834Z,-1.90
2022-12-19T01:22:41.537Z,-1.90
2022-12-19T01:25:08.398Z,-1.80
2022-12-19T01:27:35.132Z,-1.80
2022-12-19T01:30:02.036Z,-1.80
2022-12-19T01:32:31.144Z,-1.80
2022-12-19T01:34:59.843Z,-1.70
2022-12-19T01:37:26.544Z,-1.70
2022-12-19T01:39:53.251Z,-1.70
2022-12-19T01:42:23.507Z,-1.70
2022-12-19T01:45:04.281Z,-1.70
2022-12-19T01:47:32.720Z,-1.70
2022-12-19T01:50:01.309Z,-1.70
2022-12-19T01:52:30.394Z,-1.70
2022-12-19T01:54:57.432Z,-1.60
2022-12-19T01:57:29.948Z,-1.60
2022-12-19T02:00:01.162Z,-1.60
2022-12-19T02:02:38.559Z,-1.50
2022-12-19T02:05:05.880Z,-1.50
2022-12-19T02:07:34.649Z,-1.50
2022-12-19T02:10:01.729Z,-1.50
2022-12-19T02:12:32.959Z,-1.40
2022-12-19T02:15:03.785Z,-1.40
2022-12-19T02:17:33.204Z,-1.40
2022-12-19T02:20:08.434Z,-1.30
2022-12-19T02:22:53.880Z,-1.40
2022-12-19T02:25:20.566Z,-1.40
2022-12-19T02:28:17.841Z,-1.40
2022-12-19T02:30:57.629Z,-1.30
2022-12-19T02:33:59.470Z,-1.30
2022-12-19T02:37:01.213Z,-1.30
2022-12-19T02:39:51.702Z,-1.30
2022-12-19T02:42:37.760Z,-1.30
2022-12-19T02:45:10.043Z,-1.30
2022-12-19T02:47:38.343Z,-1.20
2022-12-19T02:50:08.947Z,-1.20
2022-12-19T02:52:35.642Z,-1.20
2022-12-19T02:55:15.041Z,-1.30
2022-12-19T02:58:03.135Z,-1.20
2022-12-19T03:00:32.834Z,-1.20
2022-12-19T03:03:01.737Z,-1.10
2022-12-19T03:05:34.522Z,-1.10
2022-12-19T03:08:18.216Z,-1.10
2022-12-19T03:10:47.616Z,-1.00
2022-12-19T03:13:28.446Z,-1.00
2022-12-19T03:16:00.826Z,-1.00
2022-12-19T03:18:30.743Z,-1.00
2022-12-19T03:20:57.733Z,-1.00
2022-12-19T03:23:24.461Z,-0.90
2022-12-19T03:25:57.835Z,-0.90
2022-12-19T03:28:35.211Z,-0.90
2022-12-19T03:31:04.048Z,-1.00
2022-12-19T03:33:32.928Z,-0.90
2022-12-19T03:36:04.728Z,-0.90
2022-12-19T03:38:35.539Z,-0.90
2022-12-19T03:41:05.104Z,-0.90
2022-12-19T03:43:35.421Z,-0.90
2022-12-19T03:46:20.787Z,-0.80
2022-12-19T03:48:49.981Z,-0.80
2022-12-19T03:51:49.521Z,-0.70
2022-12-19T03:54:26.793Z,-0.70
2022-12-19T03:56:58.643Z,-0.70
2022-12-19T03:59:49.616Z,-0.70
2022-12-19T04:02:19.724Z,-0.70
2022-12-19T04:04:50.915Z,-0.70
2022-12-19T04:07:23.502Z,-0.60
2022-12-19T04:09:51.712Z,-0.60
2022-12-19T04:12:26.988Z,-0.60
2022-12-19T04:14:56.112Z,-0.60
2022-12-19T04:17:51.225Z,-0.60
2022-12-19T04:20:24.501Z,-0.60
2022-12-19T04:23:04.049Z,-0.50
2022-12-19T04:25:37.472Z,-0.50
2022-12-19T04:28:18.587Z,-0.50
2022-12-19T04:30:48.965Z,-0.50
2022-12-19T04:33:16.069Z,-0.50
2022-12-19T04:35:42.821Z,-0.50
2022-12-19T04:38:11.951Z,-0.50
2022-12-19T04:40:41.443Z,-0.40
2022-12-19T04:43:09.286Z,-0.40
2022-12-19T04:45:36.671Z,-0.40
2022-12-19T04:48:08.146Z,-0.40
2022-12-19T04:50:36.321Z,-0.30
2022-12-19T04:53:05.715Z,-0.30
2022-12-19T04:55:34.755Z,-0.40
2022-12-19T04:58:08.390Z,-0.30
2022-12-19T05:00:35.146Z,-0.30
2022-12-19T05:03:06.879Z,-0.30
2022-12-19T05:05:36.078Z,-0.30
2022-12-19T05:08:04.939Z,-0.20
2022-12-19T05:10:36.407Z,-0.20
2022-12-19T05:13:05.282Z,-0.20
2022-12-19T05:15:32.873Z,-0.20
2022-12-19T05:18:01.847Z,-0.20
2022-12-19T05:20:30.728Z,-0.20
2022-12-19T05:23:03.211Z,-0.20
2022-12-19T05:25:39.362Z,-0.20
2022-12-19T05:28:06.106Z,-0.10
2022-12-19T05:30:32.833Z,-0.20
2022-12-19T05:32:59.602Z,-0.10
2022-12-19T05:35:26.429Z,-0.10
2022-12-19T05:37:53.171Z,-0.10
2022-12-19T05:40:19.888Z,-0.10
2022-12-19T05:42:49.176Z,-0.10
2022-12-19T05:45:18.444Z,-0.10
2022-12-19T05:47:48.359Z,0.00
2022-12-19T05:50:20.978Z,0.00
2022-12-19T05:52:47.647Z,0.00
2022-12-19T05:55:16.800Z,0.10
2022-12-19T05:57:45.914Z,0.10
2022-12-19T06:00:13.434Z,0.10
2022-12-19T06:02:40.206Z,0.10
2022-12-19T06:05:07.513Z,0.10
2022-12-19T06:07:39.207Z,0.10
2022-12-19T06:10:09.121Z,0.10
2022-12-19T06:12:38.124Z,0.10
2022-12-19T06:15:07.723Z,0.10
2022-12-19T06:17:39.089Z,0.20
2022-12-19T06:20:11.059Z,0.20
2022-12-19T06:22:37.668Z,0.20
2022-12-19T06:25:05.162Z,0.20
2022-12-19T06:27:34.089Z,0.20
2022-12-19T06:30:00.794Z,0.20
2022-12-19T06:32:37.702Z,0.30
2022-12-19T06:35:05.540Z,0.20
2022-12-19T06:37:36.864Z,0.30
2022-12-19T06:40:06.641Z,0.30
2022-12-19T06:42:35.876Z,0.30
2022-12-19T06:45:07.272Z,0.40
2022-12-19T06:47:33.997Z,0.50
2022-12-19T06:50:00.723Z,0.60
2022-12-19T06:52:34.376Z,0.60
2022-12-19T06:55:03.354Z,0.50
2022-12-19T06:57:32.617Z,0.40
2022-12-19T06:59:59.343Z,0.40
2022-12-19T07:02:30.220Z,0.50
2022-12-19T07:05:05.428Z,0.50
2022-12-19T07:07:33.101Z,0.50
2022-12-19T07:10:03.677Z,0.40
2022-12-19T07:12:35.457Z,0.50
2022-12-19T07:15:04.594Z,0.50
2022-12-19T07:17:39.234Z,0.50
2022-12-19T07:20:12.253Z,0.50
2022-12-19T07:22:42.221Z,0.60
2022-12-19T07:25:09.638Z,0.60
2022-12-19T07:27:39.388Z,0.60
2022-12-19T07:30:08.051Z,0.70
2022-12-19T07:32:35.307Z,0.70
2022-12-19T07:35:02.684Z,0.80
2022-12-19T07:37:29.428Z,0.80
2022-12-19T07:39:58.373Z,0.90
2022-12-19T07:42:28.172Z,0.90
2022-12-19T07:44:58.925Z,0.90
2022-12-19T07:47:28.088Z,0.90
2022-12-19T07:49:54.809Z,1.00
2022-12-19T07:52:26.655Z,1.00
2022-12-19T07:54:56.050Z,1.00
2022-12-19T07:57:27.571Z,1.10
2022-12-19T07:59:56.499Z,1.10
2022-12-19T08:02:25.527Z,1.10
2022-12-19T08:04:52.521Z,1.10
2022-12-19T08:07:21.503Z,1.20
2022-12-19T08:09:52.837Z,1.30
2022-12-19T08:12:19.752Z,1.30
2022-12-19T08:14:49.836Z,1.40
2022-12-19T08:17:22.998Z,1.40
2022-12-19T08:19:52.332Z,1.40
2022-12-19T08:22:21.571Z,1.40
2022-12-19T08:24:50.712Z,1.50
2022-12-19T08:27:20.014Z,1.50
2022-12-19T08:29:48.985Z,1.60
2022-12-19T08:32:20.883Z,1.70
2022-12-19T08:34:49.421Z,1.70
2022-12-19T08:37:20.688Z,1.80
2022-12-19T08:39:49.658Z,1.90
2022-12-19T08:42:16.578Z,1.90
2022-12-19T08:44:45.404Z,1.90
2022-12-19T08:47:48.685Z,2.00
2022-12-19T08:50:15.576Z,2.00
2022-12-19T08:52:47.482Z,2.10
2022-12-19T08:55:16.861Z,2.20
2022-12-19T08:57:43.571Z,2.30
2022-12-19T09:00:13.553Z,2.40
2022-12-19T09:02:44.032Z,2.50
2022-12-19T09:06:00.335Z,2.60
2022-12-19T09:08:04.364Z,2.60
2022-12-19T09:10:35.560Z,2.60
2022-12-19T09:13:02.243Z,2.60
2022-12-19T09:15:31.679Z,2.70
2022-12-19T09:17:58.480Z,2.70
2022-12-19T09:20:25.186Z,2.80
2022-12-19T09:22:54.273Z,2.80
2022-12-19T09:25:23.095Z,2.80
2022-12-19T09:28:26.345Z,2.90
2022-12-19T09:30:44.017Z,2.90
2022-12-19T09:33:15.977Z,2.90
2022-12-19T09:35:52.763Z,3.00
2022-12-19T09:38:29.184Z,3.00
2022-12-19T09:41:18.783Z,3.10
2022-12-19T09:43:53.743Z,3.20
2022-12-19T09:46:34.632Z,3.20
2022-12-19T09:49:10.866Z,3.30
2022-12-19T09:52:10.471Z,3.30
2022-12-19T09:54:46.535Z,3.40
2022-12-19T09:57:32.855Z,3.40
2022-12-19T10:00:08.832Z,3.40
2022-12-19T10:02:45.270Z,3.50
2022-12-19T10:06:25.505Z,3.60
2022-12-19T10:08:45.632Z,3.70
2022-12-19T10:12:43.501Z,3.70
2022-12-19T10:15:08.301Z,3.80
2022-12-19T10:17:34.993Z,3.90
2022-12-19T10:20:20.498Z,4.00
2022-12-19T10:23:26.469Z,4.00
2022-12-19T10:26:11.450Z,4.20
2022-12-19T10:28:50.403Z,4.40
2022-12-19T10:31:23.306Z,4.60
2022-12-19T10:34:19.032Z,4.60
2022-12-19T10:37:26.944Z,4.60
2022-12-19T10:39:45.525Z,4.70
2022-12-19T10:42:46.315Z,4.70
2022-12-19T10:45:16.230Z,4.50
2022-12-19T10:47:42.955Z,4.60
2022-12-19T10:50:17.741Z,4.60
2022-12-19T10:52:55.495Z,4.60
2022-12-19T10:55:40.436Z,4.70
2022-12-19T10:58:32.158Z,4.80
2022-12-19T11:01:10.362Z,4.80
2022-12-19T11:03:41.533Z,4.80
2022-12-19T11:06:37.229Z,4.80
2022-12-19T11:09:29.473Z,4.80
2022-12-19T11:15:53.686Z,4.70
2022-12-19T11:19:28.647Z,4.70
2022-12-19T11:29:10.773Z,4.70
2022-12-19T11:29:38.524Z,4.80
2022-12-19T11:29:40.545Z,4.80
2022-12-19T11:30:09.511Z,4.70
2022-12-19T11:33:14.717Z,4.60
2022-12-19T11:35:53.998Z,4.50
2022-12-19T11:38:40.088Z,4.50
2022-12-19T11:41:16.846Z,4.60
2022-12-19T11:44:32.931Z,4.60
2022-12-19T11:47:08.049Z,4.70
2022-12-19T11:49:44.294Z,4.80
2022-12-19T11:53:03.360Z,4.80
2022-12-19T11:55:50.108Z,4.80
2022-12-19T11:58:17.180Z,4.80
2022-12-19T12:00:57.738Z,4.70
2022-12-19T12:03:30.512Z,4.80
2022-12-19T12:06:06.086Z,4.80
2022-12-19T12:11:05.282Z,4.80
2022-12-19T12:16:13.436Z,4.90
2022-12-19T12:29:54.076Z,4.90
2022-12-19T12:31:07.144Z,5.00
2022-12-19T12:31:28.339Z,5.00
2022-12-19T12:31:38.741Z,5.00
2022-12-19T12:31:42.236Z,5.00
2022-12-19T12:31:58.268Z,5.10
2022-12-19T12:35:19.909Z,4.90
2022-12-19T12:39:03.153Z,4.90
2022-12-19T12:42:03.811Z,4.90
2022-12-19T12:44:42.927Z,5.00
2022-12-19T12:47:17.812Z,5.00
2022-12-19T12:49:52.713Z,5.10
2022-12-19T12:52:27.134Z,5.10
2022-12-19T12:54:57.658Z,5.10
2022-12-19T12:57:29.528Z,5.20
2022-12-19T13:00:31.922Z,5.30
2022-12-19T13:03:21.404Z,5.30
2022-12-19T13:06:04.621Z,5.40
2022-12-19T13:08:50.020Z,5.40
2022-12-19T13:11:37.960Z,5.40
2022-12-19T13:14:37.193Z,5.50
2022-12-19T13:17:07.806Z,5.40
2022-12-19T13:19:36.427Z,5.30
2022-12-19T13:22:08.706Z,5.20
2022-12-19T13:24:46.287Z,5.20
2022-12-19T13:27:19.047Z,5.30
2022-12-19T13:30:00.818Z,5.30
2022-12-19T13:32:38.693Z,5.20
2022-12-19T13:39:10.736Z,5.20
2022-12-19T13:39:56.405Z,5.20
2022-12-19T13:41:58.164Z,5.20
2022-12-19T13:44:25.527Z,5.20
2022-12-19T13:46:55.284Z,5.30
2022-12-19T13:49:34.133Z,5.10
2022-12-19T13:52:03.619Z,5.10
2022-12-19T13:54:51.768Z,5.00
2022-12-19T13:57:30.108Z,4.90
2022-12-19T14:00:08.640Z,4.90
2022-12-19T14:02:44.733Z,4.80
2022-12-19T14:05:48.466Z,4.70
2022-12-19T14:08:25.371Z,4.70
2022-12-19T14:11:40.454Z,4.60
2022-12-19T14:14:17.464Z,4.60
2022-12-19T14:16:47.841Z,4.60
2022-12-19T14:19:26.156Z,4.60
2022-12-19T14:22:04.370Z,4.50
2022-12-19T14:24:35.022Z,4.50
2022-12-19T14:28:17.253Z,4.50
2022-12-19T14:30:28.005Z,4.40
2022-12-19T14:33:45.636Z,4.30
2022-12-19T14:36:08.662Z,4.30
2022-12-19T14:39:21.271Z,4.20
2022-12-19T14:42:02.654Z,4.20
2022-12-19T14:52:34.244Z,4.10
2022-12-19T14:53:52.151Z,4.20
2022-12-19T14:54:13.816Z,4.00
2022-12-19T14:54:20.958Z,4.00
2022-12-19T14:56:57.605Z,3.90
2022-12-19T14:59:29.190Z,3.70
2022-12-19T15:02:01.659Z,3.60
2022-12-19T15:04:50.229Z,3.60
2022-12-19T15:07:25.105Z,3.50
2022-12-19T15:11:05.181Z,3.50
2022-12-19T15:14:51.991Z,3.50
2022-12-19T15:16:27.776Z,3.50
2022-12-19T15:18:58.337Z,3.50
2022-12-19T15:21:29.008Z,3.40
2022-12-19T15:23:55.878Z,3.30
2022-12-19T15:26:48.365Z,3.30
2022-12-19T15:29:21.816Z,3.30
2022-12-19T15:31:51.914Z,3.20
2022-12-19T15:34:37.210Z,3.20
2022-12-19T15:37:12.896Z,3.10
2022-12-19T15:39:40.661Z,3.00
2022-12-19T15:42:21.535Z,3.00
2022-12-19T15:44:49.369Z,3.00
2022-12-19T15:47:25.678Z,2.90
2022-12-19T15:49:52.417Z,2.70
2022-12-19T15:52:25.356Z,2.70
2022-12-19T15:54:57.346Z,2.60
2022-12-19T15:57:39.774Z,2.60
2022-12-19T16:00:15.625Z,2.50
2022-12-19T16:03:21.285Z,2.50
2022-12-19T16:05:29.806Z,2.50
2022-12-19T16:07:58.653Z,2.50
2022-12-19T16:10:26.302Z,2.40
2022-12-19T16:12:55.834Z,2.40
2022-12-19T16:15:26.889Z,2.30
2022-12-19T16:17:54.749Z,2.30
2022-12-19T16:20:35.886Z,2.30
2022-12-19T16:23:04.864Z,2.30
2022-12-19T16:25:45.428Z,2.30
2022-12-19T16:28:30.350Z,2.30
2022-12-19T16:30:59.975Z,2.30
2022-12-19T16:33:29.766Z,2.20
2022-12-19T16:36:06.127Z,2.30
2022-12-19T16:38:33.868Z,2.30
2022-12-19T16:41:01.785Z,2.20
2022-12-19T16:43:33.307Z,2.20
2022-12-19T16:46:01.829Z,2.20
2022-12-19T16:48:30.075Z,2.20
2022-12-19T16:51:00.157Z,2.10
2022-12-19T16:53:27.037Z,2.10
2022-12-19T16:55:55.376Z,2.10
2022-12-19T16:58:27.162Z,2.10
2022-12-19T17:00:55.383Z,2.10
2022-12-19T17:03:41.505Z,2.10
2022-12-19T17:06:14.119Z,2.10
2022-12-19T17:08:41.542Z,2.00
2022-12-19T17:11:23.442Z,2.00
2022-12-19T17:14:01.746Z,2.10
2022-12-19T17:16:31.041Z,2.00
2022-12-19T17:18:58.962Z,2.10
2022-12-19T17:21:25.764Z,2.10
2022-12-19T17:23:52.903Z,2.00
2022-12-19T17:26:21.905Z,1.90
2022-12-19T17:28:48.721Z,1.90
2022-12-19T17:31:28.039Z,1.80
2022-12-19T17:33:57.700Z,1.80
2022-12-19T17:36:36.564Z,1.80
2022-12-19T17:39:16.951Z,1.80
2022-12-19T17:41:43.719Z,1.70
2022-12-19T17:44:15.374Z,1.70
2022-12-19T17:46:45.125Z,1.60
2022-12-19T17:49:26.360Z,1.60
2022-12-19T17:51:56.219Z,1.50
2022-12-19T17:54:26.117Z,1.50
2022-12-19T17:56:55.494Z,1.50
2022-12-19T17:59:22.221Z,1.50
2022-12-19T18:01:49.252Z,1.50
2022-12-19T18:04:21.118Z,1.50
2022-12-19T18:06:49.172Z,1.50
2022-12-19T18:09:23.953Z,1.50
2022-12-19T18:11:54.196Z,1.50
2022-12-19T18:14:23.204Z,1.50
2022-12-19T18:16:50.700Z,1.50
2022-12-19T18:19:22.127Z,1.50
2022-12-19T18:21:49.214Z,1.50
2022-12-19T18:24:16.755Z,1.50
2022-12-19T18:26:44.873Z,1.50
2022-12-19T18:29:11.840Z,1.40
2022-12-19T18:31:42.432Z,1.30
2022-12-19T18:34:22.581Z,1.30
2022-12-19T18:36:49.548Z,1.30
2022-12-19T18:39:21.920Z,1.30
2022-12-19T18:41:51.174Z,1.50
2022-12-19T18:44:22.609Z,1.50
2022-12-19T18:46:52.542Z,1.50
2022-12-19T18:49:22.978Z,1.50
2022-12-19T18:51:51.955Z,1.40
2022-12-19T18:54:24.276Z,1.40
2022-12-19T18:56:51.970Z,1.30
2022-12-19T18:59:18.735Z,1.30
2022-12-19T19:01:47.289Z,1.30
2022-12-19T19:04:17.656Z,1.30
2022-12-19T19:06:50.873Z,1.40
2022-12-19T19:09:21.672Z,1.30
2022-12-19T19:11:48.616Z,1.30
2022-12-19T19:14:17.945Z,1.30
2022-12-19T19:16:49.655Z,1.30
2022-12-19T19:19:18.839Z,1.30
2022-12-19T19:21:59.625Z,1.30
2022-12-19T19:24:26.466Z,1.20
2022-12-19T19:26:53.434Z,1.20
2022-12-19T19:29:20.249Z,1.20
2022-12-19T19:31:51.209Z,1.30
2022-12-19T19:34:21.692Z,1.30
2022-12-19T19:36:53.502Z,1.30
2022-12-19T19:39:22.058Z,1.30
2022-12-19T19:41:49.060Z,1.30
2022-12-19T19:44:15.940Z,1.30
2022-12-19T19:46:42.866Z,1.20
2022-12-19T19:49:12.369Z,1.20
2022-12-19T19:51:41.700Z,1.10
2022-12-19T19:54:11.034Z,1.10
2022-12-19T19:56:37.842Z,1.20
2022-12-19T19:59:07.821Z,1.20
2022-12-19T20:01:37.632Z,1.10
2022-12-19T20:04:07.770Z,1.10
2022-12-19T20:06:34.977Z,1.20
2022-12-19T20:09:04.029Z,1.20
2022-12-19T20:11:30.778Z,1.20
2022-12-19T20:13:57.578Z,1.10
2022-12-19T20:16:24.908Z,1.20
2022-12-19T20:18:52.967Z,1.20
2022-12-19T20:21:20.508Z,1.20
2022-12-19T20:23:47.319Z,1.20
2022-12-19T20:26:16.427Z,1.20
2022-12-19T20:28:48.797Z,1.20
2022-12-19T20:31:21.558Z,1.20
2022-12-19T20:33:53.105Z,1.30
2022-12-19T20:36:22.378Z,1.30
2022-12-19T20:38:52.032Z,1.30
2022-12-19T20:41:21.583Z,1.40
2022-12-19T20:43:52.345Z,1.40
2022-12-19T20:46:20.753Z,1.40
2022-12-19T20:48:49.404Z,1.50
2022-12-19T20:51:20.712Z,1.40
2022-12-19T20:53:49.014Z,1.50
2022-12-19T20:56:18.711Z,1.40
2022-12-19T20:58:50.575Z,1.50
2022-12-19T21:01:21.041Z,1.50
2022-12-19T21:03:51.224Z,1.50
2022-12-19T21:06:20.927Z,1.60
2022-12-19T21:08:53.003Z,1.60
2022-12-19T21:11:19.741Z,1.60
2022-12-19T21:13:46.632Z,1.70
2022-12-19T21:16:16.562Z,1.70
2022-12-19T21:18:46.894Z,1.70
2022-12-19T21:21:22.759Z,1.70
2022-12-19T21:23:50.170Z,1.70
2022-12-19T21:26:17.329Z,1.80
2022-12-19T21:28:47.153Z,1.90
2022-12-19T21:31:30.292Z,1.90
2022-12-19T21:34:02.357Z,1.90
2022-12-19T21:36:33.878Z,1.80
2022-12-19T21:39:02.336Z,1.80
2022-12-19T21:41:29.784Z,1.80
2022-12-19T21:44:00.685Z,1.80
2022-12-19T21:46:32.979Z,1.80
2022-12-19T21:49:03.337Z,1.80
2022-12-19T21:51:31.783Z,1.80
2022-12-19T21:54:01.069Z,1.80
2022-12-19T21:56:39.082Z,1.70
2022-12-19T21:59:10.070Z,1.80
2022-12-19T22:01:41.867Z,1.80
2022-12-19T22:04:21.006Z,1.80
2022-12-19T22:06:51.188Z,1.80
2022-12-19T22:09:20.888Z,1.80
2022-12-19T22:11:52.841Z,1.80
2022-12-19T22:14:19.617Z,1.80
2022-12-19T22:16:46.574Z,1.70
2022-12-19T22:19:15.640Z,1.70
2022-12-19T22:21:48.612Z,1.70
2022-12-19T22:24:16.701Z,1.70
2022-12-19T22:26:46.340Z,1.70
2022-12-19T22:29:19.069Z,1.70
2022-12-19T22:31:49.588Z,1.60
2022-12-19T22:34:19.494Z,1.60
2022-12-19T22:36:47.189Z,1.60
2022-12-19T22:39:18.910Z,1.70
2022-12-19T22:41:45.823Z,1.70
2022-12-19T22:44:21.055Z,1.70
2022-12-19T22:46:51.326Z,1.70
2022-12-19T22:49:18.288Z,1.70
2022-12-19T22:51:47.698Z,1.70
2022-12-19T22:54:17.075Z,1.80
2022-12-19T22:56:43.893Z,1.80
2022-12-19T22:59:14.048Z,1.80
2022-12-19T23:01:46.058Z,1.80
2022-12-19T23:04:14.396Z,1.80
2022-12-19T23:06:43.938Z,1.90
2022-12-19T23:09:14.227Z,1.90
2022-12-19T23:11:46.456Z,1.90
2022-12-19T23:14:17.947Z,1.80
2022-12-19T23:16:45.081Z,1.80
2022-12-19T23:19:15.207Z,1.80
2022-12-19T23:21:42.052Z,1.80
2022-12-19T23:24:13.902Z,1.80
2022-12-19T23:26:40.936Z,1.70
2022-12-19T23:29:10.433Z,1.70
2022-12-19T23:31:42.609Z,1.70
2022-12-19T23:34:12.491Z,1.80
2022-12-19T23:39:33.271Z,1.70
2022-12-19T23:42:02.216Z,1.70
2022-12-19T23:44:31.703Z,1.70
2022-12-19T23:47:03.003Z,1.80
2022-12-19T23:49:32.761Z,1.70
2022-12-19T23:51:59.489Z,1.80
2022-12-19T23:54:26.295Z,1.80
2022-12-19T23:56:53.511Z,1.80
2022-12-19T23:59:20.328Z,1.80
